首页
METAR-TAF:

METAR-TAF

机场 :

Tyndall Air Force Base

Panama City, 佛罗里达州, 美国

纬度: 30-04N, 经度: 085-35W, 海拔: 5米

当前天气观测

该预报发布于1小时和7分钟前的23:55 UTC
风速6节,风向西南
温度 30°C
湿度 75%
气压 1016 hPa
能見度: 16.1公里
天空无云

METAR: KPAM 152355Z AUTO 23006KT 10SM CLR 30/25 A3000 RMK AO2 SLP162 T03040250 10320 20304 53002 $

时间: 20:02 (01:02 UTC)

预报

该预报发布于6小时和2分钟前的19:00 UTC
预报有效从15日的 19点(UTC)到 17日的 01点(UTC)
风速9节,风向南转西南
能见度10公里或以上
散云层高于3000英尺
多云层高于10000英尺
成为
从 16日的 02点(UTC)到 16日的 03点(UTC)
风速6节,风向西南
能见度10公里或以上
多云层高于3000英尺
成为
从 16日的 13点(UTC)到 16日的 14点(UTC)
风速9节,风向西转西南
能见度10公里或以上
散云层高于2000英尺, 积雨云.
多云层高于5000英尺
附近有雷暴
短暂存在
从 16日的 15点(UTC)到 16日的 19点(UTC)
风速12节,风向西转西南,有时为18节阵风
能見度: 8000
多云层高于2000英尺, 积雨云.
雷暴, 小雨
成为
从 16日的 20点(UTC)到 16日的 21点(UTC)
风速6节,风向西南
能见度10公里或以上
多云层高于3000英尺

TAF: KPAM 151900Z 1519/1701 21009KT 9999 SCT030 BKN100 QNH2998INS BECMG 1602/1603 23006KT 9999 BKN030 QNH3000INS BECMG 1613/1614 24009KT 9999 VCTS SCT020CB BKN050 QNH2997INS TEMPO 1615/1619 24012G18KT 8000 -TSRA BKN020CB BECMG 1620/1621 22006KT 9999 NSW BKN030 QNH2999INS TX33/1519Z TN26/1611Z

超过4000个机场的气象观测和天气预报(METAR&TAF报告)。

可查询的气象台以黄色和红色小点在地图上表示。

将鼠标移到小点上方,可查看气象台名称。

然后点击查看天气观测和预报。

如需切换地图:点击带黑十字的绿色按钮放大地图;点击带横线的绿色按钮缩小地图;或者点击绿色箭头查看邻近地区的地图。


METAR-TAF: